Loughborough, United Kingdom
Current Conditions -  °F | °C
As of 7:20 AM on Thursday 23 Oct 2014 (Local Time) from EGNX Reporting Station
Broken Clouds Broken Clouds  
Wind Chill: 52°   Ceiling: 2100
Heat Index: 52°   Visibility: 6mi
Dew Point: 48°   Wind: 9mph
Humidity: 88%   Direction: 190°S
Pressure: 30.03"   Gusts: NA
Location:  52.77°N, 1.2°W
Report Text: EGNX 230620Z 19008KT 9999 BKN021 11/09 Q1017
Loading
Personal Weather Stations






























Interactive Weather Map
Tropical Storm Tracking
New forecast layout! Learn more

10-Day Weather Forecast

Advertisements
Track Severe Weather on mobile